sensor_id;sensor_type;location;lat;lon;timestamp;temperature;humidity
10245;DHT22;5167;52.164;10.530;2024-02-21T00:00:45;10.50;37.80
10245;DHT22;5167;52.164;10.530;2024-02-21T00:03:10;10.50;38.20
10245;DHT22;5167;52.164;10.530;2024-02-21T00:05:36;10.50;39.20
10245;DHT22;5167;52.164;10.530;2024-02-21T00:08:02;10.50;39.60
10245;DHT22;5167;52.164;10.530;2024-02-21T00:10:28;10.50;39.30
10245;DHT22;5167;52.164;10.530;2024-02-21T00:12:54;10.70;38.80
10245;DHT22;5167;52.164;10.530;2024-02-21T00:15:19;10.60;38.60
10245;DHT22;5167;52.164;10.530;2024-02-21T00:17:45;10.60;39.30
10245;DHT22;5167;52.164;10.530;2024-02-21T00:20:11;10.60;38.60
10245;DHT22;5167;52.164;10.530;2024-02-21T00:22:37;10.60;38.70
10245;DHT22;5167;52.164;10.530;2024-02-21T00:25:03;10.60;38.50
10245;DHT22;5167;52.164;10.530;2024-02-21T00:27:28;10.60;38.40
10245;DHT22;5167;52.164;10.530;2024-02-21T00:29:54;10.60;38.60
10245;DHT22;5167;52.164;10.530;2024-02-21T00:32:19;10.70;38.60
10245;DHT22;5167;52.164;10.530;2024-02-21T00:34:45;10.60;38.40
10245;DHT22;5167;52.164;10.530;2024-02-21T00:37:10;10.60;38.70
10245;DHT22;5167;52.164;10.530;2024-02-21T00:39:36;10.70;38.20
10245;DHT22;5167;52.164;10.530;2024-02-21T00:42:02;10.60;38.10
10245;DHT22;5167;52.164;10.530;2024-02-21T00:44:28;10.70;38.10
10245;DHT22;5167;52.164;10.530;2024-02-21T00:46:53;10.60;37.30
10245;DHT22;5167;52.164;10.530;2024-02-21T00:49:19;10.60;38.20
10245;DHT22;5167;52.164;10.530;2024-02-21T00:51:44;10.60;38.30
10245;DHT22;5167;52.164;10.530;2024-02-21T00:54:10;10.60;38.50
10245;DHT22;5167;52.164;10.530;2024-02-21T00:56:35;10.60;39.10
10245;DHT22;5167;52.164;10.530;2024-02-21T00:59:01;10.80;38.80
10245;DHT22;5167;52.164;10.530;2024-02-21T01:01:26;10.60;38.20
10245;DHT22;5167;52.164;10.530;2024-02-21T01:03:52;10.60;38.20
10245;DHT22;5167;52.164;10.530;2024-02-21T01:06:21;10.60;38.40
10245;DHT22;5167;52.164;10.530;2024-02-21T01:08:49;10.50;38.10
10245;DHT22;5167;52.164;10.530;2024-02-21T01:11:16;10.60;38.10
10245;DHT22;5167;52.164;10.530;2024-02-21T01:13:41;10.70;38.70
10245;DHT22;5167;52.164;10.530;2024-02-21T01:16:07;10.50;38.70
10245;DHT22;5167;52.164;10.530;2024-02-21T01:18:42;10.60;39.10
10245;DHT22;5167;52.164;10.530;2024-02-21T01:21:08;10.70;39.10
10245;DHT22;5167;52.164;10.530;2024-02-21T01:23:35;10.60;39.50
10245;DHT22;5167;52.164;10.530;2024-02-21T01:26:01;10.60;39.50
10245;DHT22;5167;52.164;10.530;2024-02-21T01:28:27;10.60;39.70
10245;DHT22;5167;52.164;10.530;2024-02-21T01:30:52;10.60;39.70
10245;DHT22;5167;52.164;10.530;2024-02-21T01:33:17;10.50;39.90
10245;DHT22;5167;52.164;10.530;2024-02-21T01:35:44;10.70;39.80
10245;DHT22;5167;52.164;10.530;2024-02-21T01:38:10;10.60;40.00
10245;DHT22;5167;52.164;10.530;2024-02-21T01:40:36;10.60;40.00
10245;DHT22;5167;52.164;10.530;2024-02-21T01:43:02;10.60;40.90
10245;DHT22;5167;52.164;10.530;2024-02-21T01:45:28;10.60;41.00
10245;DHT22;5167;52.164;10.530;2024-02-21T01:47:53;10.60;41.20
10245;DHT22;5167;52.164;10.530;2024-02-21T01:50:19;10.60;41.30
10245;DHT22;5167;52.164;10.530;2024-02-21T01:52:46;10.60;42.10
10245;DHT22;5167;52.164;10.530;2024-02-21T01:55:13;10.60;41.80
10245;DHT22;5167;52.164;10.530;2024-02-21T01:57:41;10.60;41.80
10245;DHT22;5167;52.164;10.530;2024-02-21T02:00:09;10.60;42.00
10245;DHT22;5167;52.164;10.530;2024-02-21T02:02:36;10.60;42.00
10245;DHT22;5167;52.164;10.530;2024-02-21T02:05:03;10.60;42.20
10245;DHT22;5167;52.164;10.530;2024-02-21T02:07:29;10.70;42.20
10245;DHT22;5167;52.164;10.530;2024-02-21T02:09:54;10.60;41.90
10245;DHT22;5167;52.164;10.530;2024-02-21T02:12:20;10.60;42.90
10245;DHT22;5167;52.164;10.530;2024-02-21T02:14:46;10.80;41.60
10245;DHT22;5167;52.164;10.530;2024-02-21T02:17:11;10.80;41.70
10245;DHT22;5167;52.164;10.530;2024-02-21T02:19:37;10.70;41.50
10245;DHT22;5167;52.164;10.530;2024-02-21T02:22:10;10.70;41.70
10245;DHT22;5167;52.164;10.530;2024-02-21T02:24:39;10.70;42.10
10245;DHT22;5167;52.164;10.530;2024-02-21T02:27:05;10.70;41.80
10245;DHT22;5167;52.164;10.530;2024-02-21T02:29:32;10.70;41.60
10245;DHT22;5167;52.164;10.530;2024-02-21T02:31:58;10.60;41.40
10245;DHT22;5167;52.164;10.530;2024-02-21T02:34:23;10.70;41.90
10245;DHT22;5167;52.164;10.530;2024-02-21T02:36:49;10.60;42.10
10245;DHT22;5167;52.164;10.530;2024-02-21T02:39:15;10.60;41.90
10245;DHT22;5167;52.164;10.530;2024-02-21T02:41:40;10.60;42.10
10245;DHT22;5167;52.164;10.530;2024-02-21T02:44:05;10.60;41.80
10245;DHT22;5167;52.164;10.530;2024-02-21T02:46:31;10.60;41.30
10245;DHT22;5167;52.164;10.530;2024-02-21T02:48:56;10.70;41.40
10245;DHT22;5167;52.164;10.530;2024-02-21T02:51:22;10.70;41.30
10245;DHT22;5167;52.164;10.530;2024-02-21T02:53:47;10.70;41.10
10245;DHT22;5167;52.164;10.530;2024-02-21T02:56:16;10.70;40.90
10245;DHT22;5167;52.164;10.530;2024-02-21T02:58:43;10.80;41.40
10245;DHT22;5167;52.164;10.530;2024-02-21T03:01:08;10.70;41.20
10245;DHT22;5167;52.164;10.530;2024-02-21T03:03:34;10.80;41.20
10245;DHT22;5167;52.164;10.530;2024-02-21T03:05:59;10.70;40.80
10245;DHT22;5167;52.164;10.530;2024-02-21T03:08:25;10.80;41.20
10245;DHT22;5167;52.164;10.530;2024-02-21T03:10:50;10.80;41.20
10245;DHT22;5167;52.164;10.530;2024-02-21T03:13:16;10.70;40.60
10245;DHT22;5167;52.164;10.530;2024-02-21T03:15:41;10.80;40.40
10245;DHT22;5167;52.164;10.530;2024-02-21T03:18:07;10.80;40.60
10245;DHT22;5167;52.164;10.530;2024-02-21T03:20:32;10.80;40.00
10245;DHT22;5167;52.164;10.530;2024-02-21T03:22:58;10.80;39.60
10245;DHT22;5167;52.164;10.530;2024-02-21T03:25:23;10.80;40.10
10245;DHT22;5167;52.164;10.530;2024-02-21T03:27:49;10.80;40.00
10245;DHT22;5167;52.164;10.530;2024-02-21T03:30:14;10.80;39.60
10245;DHT22;5167;52.164;10.530;2024-02-21T03:32:40;10.80;39.60
10245;DHT22;5167;52.164;10.530;2024-02-21T03:35:08;10.80;39.90
10245;DHT22;5167;52.164;10.530;2024-02-21T03:37:34;10.70;39.60
10245;DHT22;5167;52.164;10.530;2024-02-21T03:39:59;10.70;39.30
10245;DHT22;5167;52.164;10.530;2024-02-21T03:42:25;10.70;39.20
10245;DHT22;5167;52.164;10.530;2024-02-21T03:44:50;10.70;38.70
10245;DHT22;5167;52.164;10.530;2024-02-21T03:47:16;10.70;39.00
10245;DHT22;5167;52.164;10.530;2024-02-21T03:49:41;10.70;39.30
10245;DHT22;5167;52.164;10.530;2024-02-21T03:52:07;10.60;39.80
10245;DHT22;5167;52.164;10.530;2024-02-21T03:54:33;10.70;39.40
10245;DHT22;5167;52.164;10.530;2024-02-21T03:56:59;10.70;40.30
10245;DHT22;5167;52.164;10.530;2024-02-21T03:59:24;10.70;40.20
10245;DHT22;5167;52.164;10.530;2024-02-21T04:01:53;10.70;39.90
10245;DHT22;5167;52.164;10.530;2024-02-21T04:04:19;10.70;39.00
10245;DHT22;5167;52.164;10.530;2024-02-21T04:06:51;10.70;39.30
10245;DHT22;5167;52.164;10.530;2024-02-21T04:09:18;10.60;39.50
10245;DHT22;5167;52.164;10.530;2024-02-21T04:11:43;10.60;39.10
10245;DHT22;5167;52.164;10.530;2024-02-21T04:14:09;10.70;39.30
10245;DHT22;5167;52.164;10.530;2024-02-21T04:16:36;10.60;39.40
10245;DHT22;5167;52.164;10.530;2024-02-21T04:19:05;10.60;38.60
10245;DHT22;5167;52.164;10.530;2024-02-21T04:21:30;10.50;39.00
10245;DHT22;5167;52.164;10.530;2024-02-21T04:23:56;10.40;38.90
10245;DHT22;5167;52.164;10.530;2024-02-21T04:26:21;10.50;38.80
10245;DHT22;5167;52.164;10.530;2024-02-21T04:28:46;10.50;38.80
10245;DHT22;5167;52.164;10.530;2024-02-21T04:31:12;10.40;38.60
10245;DHT22;5167;52.164;10.530;2024-02-21T04:33:38;10.40;38.50
10245;DHT22;5167;52.164;10.530;2024-02-21T04:36:03;10.40;38.30
10245;DHT22;5167;52.164;10.530;2024-02-21T04:38:30;10.50;38.40
10245;DHT22;5167;52.164;10.530;2024-02-21T04:40:55;10.40;37.70
10245;DHT22;5167;52.164;10.530;2024-02-21T04:43:24;10.50;37.40
10245;DHT22;5167;52.164;10.530;2024-02-21T04:45:50;10.40;37.50
10245;DHT22;5167;52.164;10.530;2024-02-21T04:48:16;10.60;37.20
10245;DHT22;5167;52.164;10.530;2024-02-21T04:50:41;10.50;37.00
10245;DHT22;5167;52.164;10.530;2024-02-21T04:53:07;10.40;36.80
10245;DHT22;5167;52.164;10.530;2024-02-21T04:55:33;10.40;36.70
10245;DHT22;5167;52.164;10.530;2024-02-21T04:57:58;10.50;36.60
10245;DHT22;5167;52.164;10.530;2024-02-21T05:00:24;10.50;36.70
10245;DHT22;5167;52.164;10.530;2024-02-21T05:02:49;10.50;36.60
10245;DHT22;5167;52.164;10.530;2024-02-21T05:05:15;10.50;36.50
10245;DHT22;5167;52.164;10.530;2024-02-21T05:07:42;10.60;36.20
10245;DHT22;5167;52.164;10.530;2024-02-21T05:10:08;10.60;36.60
10245;DHT22;5167;52.164;10.530;2024-02-21T05:12:33;10.60;36.00
10245;DHT22;5167;52.164;10.530;2024-02-21T05:14:59;10.60;35.80
10245;DHT22;5167;52.164;10.530;2024-02-21T05:17:24;10.50;35.80
10245;DHT22;5167;52.164;10.530;2024-02-21T05:19:50;10.50;35.80
10245;DHT22;5167;52.164;10.530;2024-02-21T05:22:15;10.60;35.80
10245;DHT22;5167;52.164;10.530;2024-02-21T05:24:41;10.60;35.60
10245;DHT22;5167;52.164;10.530;2024-02-21T05:27:06;10.60;35.10
10245;DHT22;5167;52.164;10.530;2024-02-21T05:29:33;10.60;35.00
10245;DHT22;5167;52.164;10.530;2024-02-21T05:31:58;10.60;35.70
10245;DHT22;5167;52.164;10.530;2024-02-21T05:34:24;10.60;35.70
10245;DHT22;5167;52.164;10.530;2024-02-21T05:36:50;10.60;35.40
10245;DHT22;5167;52.164;10.530;2024-02-21T05:39:17;10.50;36.10
10245;DHT22;5167;52.164;10.530;2024-02-21T05:41:42;10.60;35.40
10245;DHT22;5167;52.164;10.530;2024-02-21T05:44:08;10.70;35.50
10245;DHT22;5167;52.164;10.530;2024-02-21T05:46:34;10.60;34.90
10245;DHT22;5167;52.164;10.530;2024-02-21T05:49:00;10.60;34.80
10245;DHT22;5167;52.164;10.530;2024-02-21T05:51:25;10.70;34.70
10245;DHT22;5167;52.164;10.530;2024-02-21T05:53:51;10.60;34.30
10245;DHT22;5167;52.164;10.530;2024-02-21T05:56:16;10.70;34.80
10245;DHT22;5167;52.164;10.530;2024-02-21T05:58:43;10.60;34.60
10245;DHT22;5167;52.164;10.530;2024-02-21T06:01:09;10.70;34.80
10245;DHT22;5167;52.164;10.530;2024-02-21T06:03:34;10.70;34.30
10245;DHT22;5167;52.164;10.530;2024-02-21T06:06:01;10.60;34.60
10245;DHT22;5167;52.164;10.530;2024-02-21T06:08:27;10.70;34.70
10245;DHT22;5167;52.164;10.530;2024-02-21T06:10:52;10.70;34.40
10245;DHT22;5167;52.164;10.530;2024-02-21T06:13:20;10.60;34.60
10245;DHT22;5167;52.164;10.530;2024-02-21T06:15:47;10.50;34.80
10245;DHT22;5167;52.164;10.530;2024-02-21T06:18:12;10.50;35.40
10245;DHT22;5167;52.164;10.530;2024-02-21T06:20:38;10.50;35.40
10245;DHT22;5167;52.164;10.530;2024-02-21T06:23:06;10.60;34.90
10245;DHT22;5167;52.164;10.530;2024-02-21T06:25:31;10.60;35.30
10245;DHT22;5167;52.164;10.530;2024-02-21T06:27:56;10.60;35.60
10245;DHT22;5167;52.164;10.530;2024-02-21T06:30:22;10.60;35.60
10245;DHT22;5167;52.164;10.530;2024-02-21T06:32:47;10.50;35.00
10245;DHT22;5167;52.164;10.530;2024-02-21T06:35:13;10.60;35.20
10245;DHT22;5167;52.164;10.530;2024-02-21T06:37:38;10.60;35.50
10245;DHT22;5167;52.164;10.530;2024-02-21T06:40:05;10.60;35.50
10245;DHT22;5167;52.164;10.530;2024-02-21T06:42:30;10.60;35.40
10245;DHT22;5167;52.164;10.530;2024-02-21T06:44:56;10.70;34.70
10245;DHT22;5167;52.164;10.530;2024-02-21T06:47:22;10.60;34.70
10245;DHT22;5167;52.164;10.530;2024-02-21T06:49:51;10.60;34.80
10245;DHT22;5167;52.164;10.530;2024-02-21T06:52:19;10.70;35.10
10245;DHT22;5167;52.164;10.530;2024-02-21T06:54:49;10.70;35.00
10245;DHT22;5167;52.164;10.530;2024-02-21T06:57:14;10.70;34.30
10245;DHT22;5167;52.164;10.530;2024-02-21T06:59:41;10.70;34.20
10245;DHT22;5167;52.164;10.530;2024-02-21T07:02:07;10.80;33.90
10245;DHT22;5167;52.164;10.530;2024-02-21T07:04:33;10.70;33.90
10245;DHT22;5167;52.164;10.530;2024-02-21T07:06:58;10.70;33.70
10245;DHT22;5167;52.164;10.530;2024-02-21T07:09:24;10.70;33.50
10245;DHT22;5167;52.164;10.530;2024-02-21T07:11:49;10.70;34.00
10245;DHT22;5167;52.164;10.530;2024-02-21T07:14:15;10.70;33.90
10245;DHT22;5167;52.164;10.530;2024-02-21T07:16:41;10.70;33.80
10245;DHT22;5167;52.164;10.530;2024-02-21T07:19:06;10.80;33.20
10245;DHT22;5167;52.164;10.530;2024-02-21T07:21:32;10.90;33.30
10245;DHT22;5167;52.164;10.530;2024-02-21T07:23:58;11.00;33.30
10245;DHT22;5167;52.164;10.530;2024-02-21T07:26:23;10.70;33.50
10245;DHT22;5167;52.164;10.530;2024-02-21T07:28:49;10.80;33.20
10245;DHT22;5167;52.164;10.530;2024-02-21T07:31:14;10.70;33.10
10245;DHT22;5167;52.164;10.530;2024-02-21T07:33:40;10.70;32.90
10245;DHT22;5167;52.164;10.530;2024-02-21T07:36:10;10.90;32.90
10245;DHT22;5167;52.164;10.530;2024-02-21T07:38:35;10.80;32.50
10245;DHT22;5167;52.164;10.530;2024-02-21T07:41:01;10.80;32.50
10245;DHT22;5167;52.164;10.530;2024-02-21T07:43:26;10.90;32.70
10245;DHT22;5167;52.164;10.530;2024-02-21T07:45:52;10.80;32.40
10245;DHT22;5167;52.164;10.530;2024-02-21T07:48:21;10.90;32.40
10245;DHT22;5167;52.164;10.530;2024-02-21T07:50:50;11.00;32.30
10245;DHT22;5167;52.164;10.530;2024-02-21T07:53:16;11.00;32.10
10245;DHT22;5167;52.164;10.530;2024-02-21T07:55:41;11.00;31.80
10245;DHT22;5167;52.164;10.530;2024-02-21T07:58:07;11.00;31.30
10245;DHT22;5167;52.164;10.530;2024-02-21T08:00:32;11.20;30.90
10245;DHT22;5167;52.164;10.530;2024-02-21T08:02:58;11.00;31.00
10245;DHT22;5167;52.164;10.530;2024-02-21T08:05:23;11.00;31.80
10245;DHT22;5167;52.164;10.530;2024-02-21T08:07:49;11.10;31.50
10245;DHT22;5167;52.164;10.530;2024-02-21T08:10:15;11.10;31.20
10245;DHT22;5167;52.164;10.530;2024-02-21T08:12:40;11.10;30.70
10245;DHT22;5167;52.164;10.530;2024-02-21T08:15:06;11.10;31.20
10245;DHT22;5167;52.164;10.530;2024-02-21T08:17:33;11.20;30.50
10245;DHT22;5167;52.164;10.530;2024-02-21T08:19:59;11.30;31.00
10245;DHT22;5167;52.164;10.530;2024-02-21T08:22:24;11.30;30.20
10245;DHT22;5167;52.164;10.530;2024-02-21T08:24:50;11.40;29.80
10245;DHT22;5167;52.164;10.530;2024-02-21T08:27:15;11.30;30.20
10245;DHT22;5167;52.164;10.530;2024-02-21T08:29:41;11.60;29.10
10245;DHT22;5167;52.164;10.530;2024-02-21T08:32:07;11.40;28.90
10245;DHT22;5167;52.164;10.530;2024-02-21T08:34:32;11.40;28.60
10245;DHT22;5167;52.164;10.530;2024-02-21T08:36:59;11.30;27.70
10245;DHT22;5167;52.164;10.530;2024-02-21T08:39:25;11.30;27.70
10245;DHT22;5167;52.164;10.530;2024-02-21T08:41:51;11.40;27.60
10245;DHT22;5167;52.164;10.530;2024-02-21T08:44:16;11.40;27.80
10245;DHT22;5167;52.164;10.530;2024-02-21T08:46:42;11.40;28.50
10245;DHT22;5167;52.164;10.530;2024-02-21T08:49:09;11.50;28.30
10245;DHT22;5167;52.164;10.530;2024-02-21T08:51:35;11.50;28.00
10245;DHT22;5167;52.164;10.530;2024-02-21T08:54:00;11.50;28.60
10245;DHT22;5167;52.164;10.530;2024-02-21T08:56:27;11.50;28.80
10245;DHT22;5167;52.164;10.530;2024-02-21T08:58:52;11.40;27.90
10245;DHT22;5167;52.164;10.530;2024-02-21T09:01:18;11.50;28.20
10245;DHT22;5167;52.164;10.530;2024-02-21T09:03:43;11.50;28.30
10245;DHT22;5167;52.164;10.530;2024-02-21T09:06:10;11.50;26.80
10245;DHT22;5167;52.164;10.530;2024-02-21T09:08:36;11.50;27.40
10245;DHT22;5167;52.164;10.530;2024-02-21T09:11:01;11.60;26.70
10245;DHT22;5167;52.164;10.530;2024-02-21T09:13:27;11.60;26.20
10245;DHT22;5167;52.164;10.530;2024-02-21T09:15:53;11.50;26.10
10245;DHT22;5167;52.164;10.530;2024-02-21T09:18:18;11.60;26.20
10245;DHT22;5167;52.164;10.530;2024-02-21T09:20:45;11.60;25.70
10245;DHT22;5167;52.164;10.530;2024-02-21T09:23:11;11.60;25.10
10245;DHT22;5167;52.164;10.530;2024-02-21T09:25:37;11.60;25.30
10245;DHT22;5167;52.164;10.530;2024-02-21T09:28:03;11.60;24.50
10245;DHT22;5167;52.164;10.530;2024-02-21T09:30:29;11.60;24.20
10245;DHT22;5167;52.164;10.530;2024-02-21T09:32:55;11.60;24.90
10245;DHT22;5167;52.164;10.530;2024-02-21T09:35:23;11.70;24.30
10245;DHT22;5167;52.164;10.530;2024-02-21T09:37:51;11.80;24.60
10245;DHT22;5167;52.164;10.530;2024-02-21T09:40:16;12.10;24.40
10245;DHT22;5167;52.164;10.530;2024-02-21T09:42:42;12.20;21.80
10245;DHT22;5167;52.164;10.530;2024-02-21T09:45:21;12.40;21.00
10245;DHT22;5167;52.164;10.530;2024-02-21T09:50:47;12.40;18.40
10245;DHT22;5167;52.164;10.530;2024-02-21T09:53:14;12.40;17.90
10245;DHT22;5167;52.164;10.530;2024-02-21T09:55:40;12.50;16.00
10245;DHT22;5167;52.164;10.530;2024-02-21T09:58:08;12.40;16.80
10245;DHT22;5167;52.164;10.530;2024-02-21T10:00:35;12.40;17.30
10245;DHT22;5167;52.164;10.530;2024-02-21T10:03:01;12.40;17.20
10245;DHT22;5167;52.164;10.530;2024-02-21T10:05:28;12.40;17.20
10245;DHT22;5167;52.164;10.530;2024-02-21T10:07:55;12.40;17.10
10245;DHT22;5167;52.164;10.530;2024-02-21T10:10:20;12.50;16.70
10245;DHT22;5167;52.164;10.530;2024-02-21T10:12:50;12.50;16.30
10245;DHT22;5167;52.164;10.530;2024-02-21T10:15:29;12.40;16.50
10245;DHT22;5167;52.164;10.530;2024-02-21T10:18:01;12.50;17.10
10245;DHT22;5167;52.164;10.530;2024-02-21T10:20:32;12.50;16.90
10245;DHT22;5167;52.164;10.530;2024-02-21T10:23:04;12.40;17.30
10245;DHT22;5167;52.164;10.530;2024-02-21T10:25:37;12.40;17.40
10245;DHT22;5167;52.164;10.530;2024-02-21T10:28:14;12.50;16.30
10245;DHT22;5167;52.164;10.530;2024-02-21T10:30:50;12.50;15.20
10245;DHT22;5167;52.164;10.530;2024-02-21T10:33:16;12.50;13.70
10245;DHT22;5167;52.164;10.530;2024-02-21T10:35:41;12.50;14.20
10245;DHT22;5167;52.164;10.530;2024-02-21T10:38:07;12.40;13.30
10245;DHT22;5167;52.164;10.530;2024-02-21T10:40:33;12.40;13.70
10245;DHT22;5167;52.164;10.530;2024-02-21T10:43:00;12.50;13.20
10245;DHT22;5167;52.164;10.530;2024-02-21T10:45:31;12.60;12.50
10245;DHT22;5167;52.164;10.530;2024-02-21T10:48:13;12.50;12.70
10245;DHT22;5167;52.164;10.530;2024-02-21T10:51:02;12.50;12.80
10245;DHT22;5167;52.164;10.530;2024-02-21T10:53:44;12.50;11.80
10245;DHT22;5167;52.164;10.530;2024-02-21T10:56:21;12.40;11.60
10245;DHT22;5167;52.164;10.530;2024-02-21T10:58:50;12.50;11.30
10245;DHT22;5167;52.164;10.530;2024-02-21T11:01:17;12.60;11.80
10245;DHT22;5167;52.164;10.530;2024-02-21T11:03:45;12.70;10.90
10245;DHT22;5167;52.164;10.530;2024-02-21T11:06:12;12.70;9.50
10245;DHT22;5167;52.164;10.530;2024-02-21T11:08:38;12.70;9.30
10245;DHT22;5167;52.164;10.530;2024-02-21T11:11:05;12.70;9.10
10245;DHT22;5167;52.164;10.530;2024-02-21T11:13:37;12.80;8.70
10245;DHT22;5167;52.164;10.530;2024-02-21T11:16:08;12.80;8.60
10245;DHT22;5167;52.164;10.530;2024-02-21T11:18:34;12.90;7.90
10245;DHT22;5167;52.164;10.530;2024-02-21T11:21:00;12.90;8.00
10245;DHT22;5167;52.164;10.530;2024-02-21T11:23:26;12.90;7.90
10245;DHT22;5167;52.164;10.530;2024-02-21T11:25:52;13.00;8.50
10245;DHT22;5167;52.164;10.530;2024-02-21T11:28:25;13.00;7.70
10245;DHT22;5167;52.164;10.530;2024-02-21T11:30:50;13.10;7.90
10245;DHT22;5167;52.164;10.530;2024-02-21T11:33:16;13.10;6.90
10245;DHT22;5167;52.164;10.530;2024-02-21T11:35:42;13.30;8.60
10245;DHT22;5167;52.164;10.530;2024-02-21T11:38:09;13.30;8.10
10245;DHT22;5167;52.164;10.530;2024-02-21T11:40:44;13.40;6.20
10245;DHT22;5167;52.164;10.530;2024-02-21T11:43:10;13.50;5.30
10245;DHT22;5167;52.164;10.530;2024-02-21T11:45:36;13.50;5.00
10245;DHT22;5167;52.164;10.530;2024-02-21T11:48:02;13.50;5.00
10245;DHT22;5167;52.164;10.530;2024-02-21T11:50:29;13.50;5.00
10245;DHT22;5167;52.164;10.530;2024-02-21T11:52:55;13.50;5.00
10245;DHT22;5167;52.164;10.530;2024-02-21T11:55:22;13.40;5.00
10245;DHT22;5167;52.164;10.530;2024-02-21T11:57:48;13.40;5.00
10245;DHT22;5167;52.164;10.530;2024-02-21T12:00:18;13.40;5.00
10245;DHT22;5167;52.164;10.530;2024-02-21T12:02:45;13.40;5.00
10245;DHT22;5167;52.164;10.530;2024-02-21T12:05:11;13.70;5.00
10245;DHT22;5167;52.164;10.530;2024-02-21T12:07:37;13.50;5.00
10245;DHT22;5167;52.164;10.530;2024-02-21T12:10:10;13.60;5.00
10245;DHT22;5167;52.164;10.530;2024-02-21T12:12:37;13.60;5.00
10245;DHT22;5167;52.164;10.530;2024-02-21T12:15:03;13.70;5.00
10245;DHT22;5167;52.164;10.530;2024-02-21T12:17:32;13.70;5.00
10245;DHT22;5167;52.164;10.530;2024-02-21T12:19:58;13.70;5.00
10245;DHT22;5167;52.164;10.530;2024-02-21T12:22:25;13.90;5.00
10245;DHT22;5167;52.164;10.530;2024-02-21T12:24:50;13.80;5.00
10245;DHT22;5167;52.164;10.530;2024-02-21T12:27:16;13.80;5.00
10245;DHT22;5167;52.164;10.530;2024-02-21T12:29:41;13.80;5.00
10245;DHT22;5167;52.164;10.530;2024-02-21T12:32:07;13.80;5.00
10245;DHT22;5167;52.164;10.530;2024-02-21T12:34:32;13.60;5.00
10245;DHT22;5167;52.164;10.530;2024-02-21T12:36:59;13.40;5.00
10245;DHT22;5167;52.164;10.530;2024-02-21T12:39:24;13.40;5.00
10245;DHT22;5167;52.164;10.530;2024-02-21T12:41:53;13.50;5.00
10245;DHT22;5167;52.164;10.530;2024-02-21T12:44:18;13.50;5.00
10245;DHT22;5167;52.164;10.530;2024-02-21T12:46:44;13.50;5.00
10245;DHT22;5167;52.164;10.530;2024-02-21T12:49:10;13.50;5.00
10245;DHT22;5167;52.164;10.530;2024-02-21T12:51:36;13.60;5.00
10245;DHT22;5167;52.164;10.530;2024-02-21T12:54:03;13.50;5.00
10245;DHT22;5167;52.164;10.530;2024-02-21T12:56:28;13.50;5.00
10245;DHT22;5167;52.164;10.530;2024-02-21T12:58:56;13.40;5.00
10245;DHT22;5167;52.164;10.530;2024-02-21T13:01:21;13.40;5.00
10245;DHT22;5167;52.164;10.530;2024-02-21T13:03:47;13.30;5.00
10245;DHT22;5167;52.164;10.530;2024-02-21T13:06:13;13.20;5.00
10245;DHT22;5167;52.164;10.530;2024-02-21T13:08:38;13.20;5.00
10245;DHT22;5167;52.164;10.530;2024-02-21T13:11:05;13.10;5.00
10245;DHT22;5167;52.164;10.530;2024-02-21T13:13:30;13.20;5.00
10245;DHT22;5167;52.164;10.530;2024-02-21T13:15:57;13.20;5.00
10245;DHT22;5167;52.164;10.530;2024-02-21T13:18:23;13.10;5.10
10245;DHT22;5167;52.164;10.530;2024-02-21T13:20:48;13.50;5.10
10245;DHT22;5167;52.164;10.530;2024-02-21T13:23:14;13.30;5.10
10245;DHT22;5167;52.164;10.530;2024-02-21T13:25:39;13.30;5.40
10245;DHT22;5167;52.164;10.530;2024-02-21T13:28:05;13.30;5.50
10245;DHT22;5167;52.164;10.530;2024-02-21T13:30:31;13.40;5.40
10245;DHT22;5167;52.164;10.530;2024-02-21T13:32:56;13.40;5.00
10245;DHT22;5167;52.164;10.530;2024-02-21T13:35:22;13.30;5.00
10245;DHT22;5167;52.164;10.530;2024-02-21T13:37:47;13.60;5.30
10245;DHT22;5167;52.164;10.530;2024-02-21T13:40:12;13.30;5.10
10245;DHT22;5167;52.164;10.530;2024-02-21T13:42:39;13.30;5.40
10245;DHT22;5167;52.164;10.530;2024-02-21T13:45:05;13.30;5.60
10245;DHT22;5167;52.164;10.530;2024-02-21T13:47:34;13.30;5.60
10245;DHT22;5167;52.164;10.530;2024-02-21T13:50:02;13.30;6.10
10245;DHT22;5167;52.164;10.530;2024-02-21T13:52:30;13.40;6.90
10245;DHT22;5167;52.164;10.530;2024-02-21T13:54:56;13.40;6.00
10245;DHT22;5167;52.164;10.530;2024-02-21T13:57:21;13.30;6.10
10245;DHT22;5167;52.164;10.530;2024-02-21T13:59:47;13.40;5.70
10245;DHT22;5167;52.164;10.530;2024-02-21T14:02:12;13.40;6.10
10245;DHT22;5167;52.164;10.530;2024-02-21T14:04:38;13.40;6.50
10245;DHT22;5167;52.164;10.530;2024-02-21T14:07:04;13.50;7.20
10245;DHT22;5167;52.164;10.530;2024-02-21T14:09:29;13.30;7.30
10245;DHT22;5167;52.164;10.530;2024-02-21T14:11:55;13.20;6.90
10245;DHT22;5167;52.164;10.530;2024-02-21T14:14:21;13.20;7.80
10245;DHT22;5167;52.164;10.530;2024-02-21T14:16:46;13.20;8.10
10245;DHT22;5167;52.164;10.530;2024-02-21T14:19:13;13.20;8.00
10245;DHT22;5167;52.164;10.530;2024-02-21T14:21:39;13.10;8.80
10245;DHT22;5167;52.164;10.530;2024-02-21T14:24:05;13.30;8.80
10245;DHT22;5167;52.164;10.530;2024-02-21T14:26:31;13.00;8.00
10245;DHT22;5167;52.164;10.530;2024-02-21T14:28:57;12.90;8.70
10245;DHT22;5167;52.164;10.530;2024-02-21T14:31:23;13.00;8.70
10245;DHT22;5167;52.164;10.530;2024-02-21T14:33:48;12.90;8.80
10245;DHT22;5167;52.164;10.530;2024-02-21T14:36:14;12.80;8.80
10245;DHT22;5167;52.164;10.530;2024-02-21T14:38:43;13.00;9.90
10245;DHT22;5167;52.164;10.530;2024-02-21T14:41:10;12.80;9.70
10245;DHT22;5167;52.164;10.530;2024-02-21T14:43:38;12.80;10.00
10245;DHT22;5167;52.164;10.530;2024-02-21T14:46:04;12.80;10.20
10245;DHT22;5167;52.164;10.530;2024-02-21T14:48:34;12.90;10.00
10245;DHT22;5167;52.164;10.530;2024-02-21T14:50:59;12.80;10.30
10245;DHT22;5167;52.164;10.530;2024-02-21T14:53:25;12.90;10.30
10245;DHT22;5167;52.164;10.530;2024-02-21T14:55:50;12.90;9.80
10245;DHT22;5167;52.164;10.530;2024-02-21T14:58:17;12.90;9.70
10245;DHT22;5167;52.164;10.530;2024-02-21T15:00:44;12.90;10.10
10245;DHT22;5167;52.164;10.530;2024-02-21T15:03:10;12.90;9.90
10245;DHT22;5167;52.164;10.530;2024-02-21T15:05:41;12.80;9.90
10245;DHT22;5167;52.164;10.530;2024-02-21T15:08:07;12.80;9.80
10245;DHT22;5167;52.164;10.530;2024-02-21T15:10:34;12.80;10.40
10245;DHT22;5167;52.164;10.530;2024-02-21T15:13:00;12.80;10.00
10245;DHT22;5167;52.164;10.530;2024-02-21T15:15:25;12.80;9.70
10245;DHT22;5167;52.164;10.530;2024-02-21T15:17:51;12.80;10.20
10245;DHT22;5167;52.164;10.530;2024-02-21T15:20:16;12.70;10.20
10245;DHT22;5167;52.164;10.530;2024-02-21T15:22:42;12.70;10.10
10245;DHT22;5167;52.164;10.530;2024-02-21T15:25:08;12.70;10.40
10245;DHT22;5167;52.164;10.530;2024-02-21T15:27:43;12.70;10.10
10245;DHT22;5167;52.164;10.530;2024-02-21T15:30:10;12.60;10.60
10245;DHT22;5167;52.164;10.530;2024-02-21T15:32:36;12.60;10.60